Time;durP1;ratioP1;P1;durP2;ratioP2;P2;SDS_P1;SDS_P2;PMS_P1;PMS_P2;Temp;Humidity;BMP_temperature;BMP_pressure;BME280_temperature;BME280_humidity;BME280_pressure;Samples;Min_cycle;Max_cycle;Signal;HPM_P1;HPM_P2
2022/12/01 05:48:51;;;;;;;160.18;47.90;;;1.60;99.90;;;;;;7607328;19;20374;-71
2022/12/01 05:51:23;;;;;;;160.75;47.50;;;1.50;99.90;;;;;;7613519;19;20950;-70
2022/12/01 05:53:55;;;;;;;166.63;51.28;;;1.60;99.90;;;;;;7631267;19;20025;-70
2022/12/01 05:56:27;;;;;;;156.75;47.05;;;1.70;99.90;;;;;;7639169;19;20789;-69
2022/12/01 05:58:59;;;;;;;157.80;50.38;;;1.80;99.90;;;;;;7634076;19;20057;-70
2022/12/01 06:01:31;;;;;;;136.05;45.03;;;1.80;99.90;;;;;;7639594;19;20014;-70
2022/12/01 06:04:03;;;;;;;142.63;45.42;;;1.90;99.90;;;;;;7621427;19;20021;-69
2022/12/01 06:06:35;;;;;;;150.70;46.28;;;2.00;99.90;;;;;;7628163;19;20633;-69
2022/12/01 06:09:08;;;;;;;129.70;42.05;;;2.10;99.90;;;;;;7622189;19;20400;-69
2022/12/01 06:11:40;;;;;;;127.13;42.33;;;2.10;99.90;;;;;;7620794;19;20018;-70
2022/12/01 06:14:12;;;;;;;122.15;41.10;;;2.20;99.90;;;;;;7612305;19;20037;-69
2022/12/01 06:16:44;;;;;;;121.90;42.45;;;2.20;99.90;;;;;;7592692;19;20014;-69
2022/12/01 06:19:16;;;;;;;139.00;44.08;;;2.30;99.90;;;;;;7599263;19;20077;-70
2022/12/01 06:21:48;;;;;;;127.63;43.63;;;2.40;99.90;;;;;;7616277;19;20018;-70
2022/12/01 06:24:20;;;;;;;125.72;43.00;;;2.40;99.90;;;;;;7584209;19;20018;-69
2022/12/01 06:26:52;;;;;;;134.93;43.53;;;2.40;99.90;;;;;;7596565;19;20081;-69
2022/12/01 06:29:25;;;;;;;130.38;43.00;;;2.40;99.90;;;;;;7547856;19;20022;-68
2022/12/01 06:31:57;;;;;;;125.40;43.55;;;2.40;99.90;;;;;;7589110;19;20025;-71
2022/12/01 06:34:29;;;;;;;119.50;41.97;;;2.40;99.90;;;;;;7590141;19;20041;-68
2022/12/01 06:37:01;;;;;;;137.75;43.53;;;2.40;99.90;;;;;;7582296;19;20020;-69
2022/12/01 06:39:33;;;;;;;114.75;42.17;;;2.50;99.90;;;;;;7583393;19;21773;-68
2022/12/01 06:42:05;;;;;;;112.85;40.90;;;2.50;99.90;;;;;;7586805;19;22225;-69
2022/12/01 06:44:37;;;;;;;127.93;41.67;;;2.50;99.90;;;;;;7625905;19;20377;-69
2022/12/01 06:47:09;;;;;;;113.70;41.40;;;2.60;99.90;;;;;;7578067;19;20022;-69
2022/12/01 06:49:42;;;;;;;122.63;41.50;;;2.60;99.90;;;;;;7631397;19;20014;-70
2022/12/01 06:52:14;;;;;;;120.68;44.05;;;2.60;99.90;;;;;;7625037;19;20014;-68
2022/12/01 06:54:46;;;;;;;111.35;39.70;;;2.60;99.90;;;;;;7621272;19;21202;-69
2022/12/01 06:57:18;;;;;;;116.22;41.78;;;2.60;99.90;;;;;;7609962;19;20040;-70
2022/12/01 06:59:51;;;;;;;127.00;42.28;;;2.70;99.90;;;;;;7575790;19;21094;-71
2022/12/01 07:02:23;;;;;;;101.20;38.57;;;2.70;99.90;;;;;;7593393;19;20007;-70
2022/12/01 07:04:56;;;;;;;117.70;40.05;;;2.80;99.90;;;;;;7577724;19;20015;-70
2022/12/01 07:07:28;;;;;;;111.07;40.65;;;2.90;99.90;;;;;;7582756;19;20029;-70
2022/12/01 07:10:00;;;;;;;103.93;38.80;;;2.90;99.90;;;;;;7596313;19;20021;-70
2022/12/01 07:12:32;;;;;;;114.85;39.72;;;2.90;99.90;;;;;;7599890;19;20019;-70
2022/12/01 07:15:07;;;;;;;108.53;38.40;;;2.80;99.90;;;;;;7566046;19;20025;-70
2022/12/01 07:17:39;;;;;;;110.20;38.78;;;2.80;99.90;;;;;;7581217;19;20054;-70
2022/12/01 07:20:11;;;;;;;108.65;37.75;;;2.80;99.90;;;;;;7602947;19;20029;-70
2022/12/01 07:22:43;;;;;;;108.88;38.58;;;2.80;99.90;;;;;;7591982;19;20022;-71
2022/12/01 14:05:23;;;;;;;70.75;25.58;;;3.20;99.90;;;;;;7589082;19;25744;-71
2022/12/01 14:07:56;;;;;;;66.18;27.15;;;3.20;99.90;;;;;;7620583;19;20014;-71
2022/12/01 14:10:32;;;;;;;66.80;26.48;;;3.20;99.90;;;;;;7611530;19;20385;-71
2022/12/01 14:13:05;;;;;;;60.72;25.92;;;3.20;99.90;;;;;;7618009;19;20013;-71
2022/12/01 14:15:41;;;;;;;65.07;27.83;;;3.30;99.90;;;;;;7623294;19;20018;-72
2022/12/01 14:18:33;;;;;;;70.70;29.52;;;3.30;99.90;;;;;;7616118;19;20592;-71
2022/12/01 14:21:09;;;;;;;76.32;29.92;;;3.40;99.90;;;;;;7620650;19;20368;-71
2022/12/01 14:24:01;;;;;;;69.28;29.48;;;3.40;99.90;;;;;;7619016;19;20708;-71
2022/12/01 14:26:43;;;;;;;69.22;29.85;;;3.50;99.90;;;;;;7624780;19;20022;-71
2022/12/01 14:29:38;;;;;;;63.08;29.00;;;3.50;99.90;;;;;;7639017;19;20044;-71
2022/12/01 14:32:14;;;;;;;76.82;30.00;;;3.60;99.90;;;;;;7632905;19;20061;-71
2022/12/01 14:34:50;;;;;;;72.20;29.63;;;3.60;99.90;;;;;;7602579;19;20469;-70
2022/12/01 14:37:31;;;;;;;73.38;30.15;;;3.60;99.90;;;;;;7611051;19;20021;-71
2022/12/01 14:40:16;;;;;;;71.32;29.08;;;3.70;99.90;;;;;;7637458;19;20043;-71
2022/12/01 14:46:01;;;;;;;67.90;30.60;;;3.70;99.90;;;;;;7613303;19;20863;-70
2022/12/01 14:48:39;;;;;;;67.82;27.92;;;3.70;99.90;;;;;;7633480;19;20351;-73
2022/12/01 14:51:24;;;;;;;71.68;28.95;;;3.70;99.90;;;;;;7632386;19;20014;-71
2022/12/01 14:53:59;;;;;;;67.50;27.88;;;3.70;99.90;;;;;;7632681;19;20434;-70
2022/12/01 14:56:32;;;;;;;64.60;28.33;;;3.70;99.90;;;;;;7628106;19;20011;-69
2022/12/01 14:59:24;;;;;;;69.10;28.20;;;3.70;99.90;;;;;;7622815;19;20145;-70
2022/12/01 15:02:07;;;;;;;60.80;27.17;;;3.70;99.90;;;;;;7622346;19;20590;-70
2022/12/01 15:05:08;;;;;;;67.50;27.90;;;3.60;99.90;;;;;;7611810;19;20007;-71
2022/12/01 15:07:48;;;;;;;64.63;27.73;;;3.60;99.90;;;;;;7613313;19;20317;-71
2022/12/01 15:10:35;;;;;;;69.25;29.48;;;3.60;99.90;;;;;;7621103;19;20521;-72
2022/12/01 15:13:26;;;;;;;63.13;27.13;;;3.70;99.90;;;;;;7618740;19;20022;-70
2022/12/01 15:16:04;;;;;;;59.40;26.58;;;3.60;99.90;;;;;;7589055;19;20007;-71
2022/12/01 15:18:37;;;;;;;59.60;26.30;;;3.70;99.90;;;;;;7574752;19;20293;-70
2022/12/01 15:21:18;;;;;;;63.15;26.60;;;3.70;99.90;;;;;;7592864;19;20353;-71
2022/12/01 15:23:57;;;;;;;62.88;26.15;;;3.70;99.90;;;;;;7602469;19;20571;-72
2022/12/01 15:26:36;;;;;;;61.95;26.85;;;3.60;99.90;;;;;;7580912;19;20010;-70
2022/12/01 15:29:14;;;;;;;65.78;26.75;;;3.60;99.90;;;;;;7576351;19;20031;-70
2022/12/01 15:31:52;;;;;;;63.30;26.33;;;3.60;99.90;;;;;;7585455;19;20588;-69
2022/12/01 15:34:33;;;;;;;61.45;26.90;;;3.60;99.90;;;;;;7585228;19;20019;-72
2022/12/01 15:37:16;;;;;;;70.88;28.55;;;3.60;99.90;;;;;;7577146;19;20494;-70
2022/12/01 15:40:06;;;;;;;62.55;26.20;;;3.60;99.90;;;;;;7578147;19;20670;-70
2022/12/01 15:43:05;;;;;;;60.58;26.52;;;3.60;99.90;;;;;;7577942;19;20003;-70
2022/12/01 15:45:45;;;;;;;60.63;27.70;;;3.60;99.90;;;;;;7565777;19;20414;-71
2022/12/01 15:48:35;;;;;;;70.60;27.58;;;3.50;99.90;;;;;;7572981;19;20021;-71
2022/12/01 15:51:09;;;;;;;68.95;27.58;;;3.50;99.90;;;;;;7589252;19;20056;-70
2022/12/01 15:53:49;;;;;;;69.65;27.90;;;3.50;99.90;;;;;;7601833;19;20520;-72
2022/12/01 15:56:31;;;;;;;60.90;26.20;;;3.50;99.90;;;;;;7599369;19;20043;-69
2022/12/01 15:59:12;;;;;;;59.63;26.48;;;3.50;99.90;;;;;;7574021;19;20778;-70
2022/12/01 16:01:44;;;;;;;59.22;27.20;;;3.50;99.90;;;;;;7604017;19;20090;-72
2022/12/01 16:04:21;;;;;;;68.53;28.23;;;3.50;99.90;;;;;;7602332;19;20261;-71
2022/12/01 16:07:00;;;;;;;52.90;24.83;;;3.50;99.90;;;;;;7586729;19;20018;-71
2022/12/01 16:09:54;;;;;;;57.38;25.70;;;3.50;99.90;;;;;;7582636;19;20110;-71
2022/12/01 16:12:35;;;;;;;64.20;26.02;;;3.50;99.90;;;;;;7584496;19;20340;-69
2022/12/01 16:15:17;;;;;;;64.07;25.95;;;3.50;99.90;;;;;;7590435;19;20588;-69
2022/12/01 16:17:51;;;;;;;62.75;26.95;;;3.50;99.90;;;;;;7569939;19;20020;-74
2022/12/01 16:20:30;;;;;;;69.32;26.58;;;3.40;99.90;;;;;;7577462;19;20035;-74
2022/12/01 16:23:14;;;;;;;64.47;26.65;;;3.40;99.90;;;;;;7590701;19;20018;-71
2022/12/01 16:25:47;;;;;;;67.15;27.45;;;3.40;99.90;;;;;;7591319;19;20025;-71
2022/12/01 16:28:31;;;;;;;61.33;27.42;;;3.40;99.90;;;;;;7591741;19;20025;-73
2022/12/01 16:31:05;;;;;;;56.95;25.83;;;3.40;99.90;;;;;;7584998;19;20011;-73
2022/12/01 16:33:41;;;;;;;63.78;26.23;;;3.40;99.90;;;;;;7585742;19;20056;-73
2022/12/01 16:36:13;;;;;;;62.00;27.35;;;3.40;99.90;;;;;;7600499;19;20011;-74
2022/12/01 16:38:45;;;;;;;67.00;27.25;;;3.40;99.90;;;;;;7595867;19;20087;-73
2022/12/01 16:41:27;;;;;;;61.83;26.85;;;3.40;99.90;;;;;;7592934;19;20023;-74
2022/12/01 16:44:10;;;;;;;63.05;27.58;;;4.30;99.90;;;;;;7589408;19;20980;-73
2022/12/01 16:46:59;;;;;;;64.88;26.80;;;3.40;99.90;;;;;;7571997;19;20007;-74
2022/12/01 16:49:32;;;;;;;68.78;28.52;;;3.40;99.90;;;;;;7589814;19;20010;-73
2022/12/01 16:52:04;;;;;;;62.33;26.30;;;3.40;99.90;;;;;;7584820;19;20342;-73
2022/12/01 16:54:57;;;;;;;62.22;26.63;;;3.40;99.90;;;;;;7564635;19;20011;-72
2022/12/01 16:57:29;;;;;;;63.72;27.25;;;3.40;99.90;;;;;;7561044;19;20014;-72
2022/12/01 17:00:01;;;;;;;63.63;27.17;;;3.40;99.90;;;;;;7581018;19;20110;-72
2022/12/01 17:02:34;;;;;;;64.13;27.42;;;3.40;99.90;;;;;;7559447;19;20757;-70
2022/12/01 17:05:06;;;;;;;63.92;26.80;;;3.40;99.90;;;;;;7562463;19;20014;-71
2022/12/01 17:07:38;;;;;;;66.53;28.52;;;3.40;99.90;;;;;;7558479;19;20020;-71
2022/12/01 17:10:11;;;;;;;69.95;27.38;;;3.40;99.90;;;;;;7578263;19;20014;-71
2022/12/01 17:12:44;;;;;;;63.92;27.52;;;3.40;99.90;;;;;;7575561;19;20353;-70
2022/12/01 17:15:16;;;;;;;64.18;26.02;;;3.40;99.90;;;;;;7585684;19;20022;-71
2022/12/01 17:17:48;;;;;;;61.25;27.38;;;3.40;99.90;;;;;;7581817;19;20125;-70
2022/12/01 17:20:21;;;;;;;69.03;27.60;;;3.40;99.90;;;;;;7574943;19;20015;-70
2022/12/01 17:22:53;;;;;;;71.53;27.70;;;3.40;99.90;;;;;;7578698;19;20026;-70
2022/12/01 17:25:26;;;;;;;67.50;29.00;;;3.40;99.90;;;;;;7581697;19;22018;-70
2022/12/01 17:27:58;;;;;;;68.75;28.35;;;3.30;99.90;;;;;;7598421;19;20105;-70
2022/12/01 17:30:30;;;;;;;71.93;28.55;;;3.40;99.90;;;;;;7591359;19;20050;-70
2022/12/01 17:33:03;;;;;;;76.80;33.27;;;3.30;99.90;;;;;;7594532;19;20018;-70
2022/12/01 17:35:39;;;;;;;80.38;32.25;;;3.40;99.90;;;;;;7594229;19;20733;-70
2022/12/01 17:38:11;;;;;;;68.45;29.77;;;3.40;99.90;;;;;;7597056;19;20026;-71
2022/12/01 17:40:43;;;;;;;75.25;28.98;;;3.40;99.90;;;;;;7594148;19;20010;-70
2022/12/01 17:43:16;;;;;;;64.40;29.05;;;3.40;99.90;;;;;;7598321;19;20089;-70
2022/12/01 17:45:50;;;;;;;62.20;28.90;;;3.40;99.90;;;;;;7607578;19;20014;-70
2022/12/01 17:48:22;;;;;;;63.58;27.90;;;3.30;99.90;;;;;;7598953;19;20022;-70
2022/12/01 17:50:54;;;;;;;65.05;28.15;;;3.40;99.90;;;;;;7613006;19;20018;-71
2022/12/01 17:53:26;;;;;;;78.97;30.80;;;3.40;99.90;;;;;;7598094;19;20486;-70
2022/12/01 17:55:59;;;;;;;69.13;27.80;;;3.40;99.90;;;;;;7602737;19;20019;-71
2022/12/01 17:58:31;;;;;;;69.40;31.10;;;3.40;99.90;;;;;;7606059;19;20007;-73
2022/12/01 18:01:04;;;;;;;67.32;28.40;;;3.40;99.90;;;;;;7610650;19;20022;-73
2022/12/01 18:03:36;;;;;;;71.22;29.70;;;3.40;99.90;;;;;;7609506;19;20014;-73
2022/12/01 18:06:08;;;;;;;69.47;30.35;;;3.40;99.90;;;;;;7603006;19;20521;-71
2022/12/01 18:08:41;;;;;;;67.93;28.58;;;3.40;99.90;;;;;;7596810;19;20411;-73
2022/12/01 18:11:15;;;;;;;71.68;29.88;;;3.40;99.90;;;;;;7587283;19;20029;-73
2022/12/01 18:13:49;;;;;;;69.82;29.05;;;3.40;99.90;;;;;;7593298;19;20018;-73
2022/12/01 18:16:27;;;;;;;66.82;30.40;;;3.40;99.90;;;;;;7565324;19;20057;-73
2022/12/01 18:19:00;;;;;;;66.45;29.85;;;3.40;99.90;;;;;;7588776;19;20014;-73
2022/12/01 18:21:33;;;;;;;65.97;27.70;;;3.40;99.90;;;;;;7605741;19;20018;-72
2022/12/01 18:24:07;;;;;;;61.50;28.58;;;3.70;99.90;;;;;;7587609;19;20799;-70
2022/12/01 18:26:40;;;;;;;67.47;29.02;;;3.70;99.90;;;;;;7598811;19;20014;-72
2022/12/01 18:29:22;;;;;;;71.55;30.65;;;3.60;99.90;;;;;;7589437;19;20025;-72
2022/12/01 18:31:55;;;;;;;69.20;28.77;;;3.70;99.90;;;;;;7582220;19;20057;-72
2022/12/01 18:34:30;;;;;;;67.65;28.73;;;3.70;99.90;;;;;;7597890;19;20043;-72
2022/12/01 18:37:04;;;;;;;59.65;26.17;;;3.70;99.90;;;;;;7600125;19;20030;-72
